Terminal Aerodrome Forecast
Issued by NWS

Home | Current Version | Previous Version | Text Only | Print | Product List | Glossary On
Versions: 1 2 3 4 5 6 7 8 9 10 11 12 13 14 15
000
FTUS41 KBOX 311516 AAA
TAFHYA
TAF AMD
KHYA 311516Z 3115/0112 22010KT P6SM BKN150
      TEMPO 3115/3118 BKN020
     FM010100 21009KT P6SM BKN110
     FM010600 22005KT P6SM BKN090
     FM010800 23005KT P6SM VCSH BKN090=

USA.gov is the U.S. government's official web portal to all federal, state and local government web resources and services.